sensor_id;sensor_type;location;lat;lon;timestamp;temperature;humidity
54272;DHT22;40184;53.362;5.216;2023-02-28T00:00:31;6.50;99.90
54272;DHT22;40184;53.362;5.216;2023-02-28T00:02:57;6.80;99.90
54272;DHT22;40184;53.362;5.216;2023-02-28T00:05:24;6.60;99.90
54272;DHT22;40184;53.362;5.216;2023-02-28T00:07:50;7.00;99.90
54272;DHT22;40184;53.362;5.216;2023-02-28T00:10:26;6.70;99.90
54272;DHT22;40184;53.362;5.216;2023-02-28T00:12:53;6.70;99.90
54272;DHT22;40184;53.362;5.216;2023-02-28T00:15:23;6.80;99.90
54272;DHT22;40184;53.362;5.216;2023-02-28T00:17:49;6.60;99.90
54272;DHT22;40184;53.362;5.216;2023-02-28T00:20:15;6.70;99.90
54272;DHT22;40184;53.362;5.216;2023-02-28T00:22:46;6.50;99.90
54272;DHT22;40184;53.362;5.216;2023-02-28T00:25:16;6.80;99.90
54272;DHT22;40184;53.362;5.216;2023-02-28T00:27:42;6.70;99.90
54272;DHT22;40184;53.362;5.216;2023-02-28T00:30:11;6.70;99.90
54272;DHT22;40184;53.362;5.216;2023-02-28T00:32:38;6.80;99.90
54272;DHT22;40184;53.362;5.216;2023-02-28T00:35:04;6.70;99.90
54272;DHT22;40184;53.362;5.216;2023-02-28T00:37:30;6.60;99.90
54272;DHT22;40184;53.362;5.216;2023-02-28T00:39:56;6.70;99.90
54272;DHT22;40184;53.362;5.216;2023-02-28T00:42:22;6.70;99.90
54272;DHT22;40184;53.362;5.216;2023-02-28T00:44:48;6.60;99.90
54272;DHT22;40184;53.362;5.216;2023-02-28T00:47:13;6.60;99.90
54272;DHT22;40184;53.362;5.216;2023-02-28T00:49:39;6.80;99.90
54272;DHT22;40184;53.362;5.216;2023-02-28T00:52:05;6.70;99.90
54272;DHT22;40184;53.362;5.216;2023-02-28T00:54:31;6.60;99.90
54272;DHT22;40184;53.362;5.216;2023-02-28T00:56:57;6.70;99.90
54272;DHT22;40184;53.362;5.216;2023-02-28T00:59:22;6.50;99.90
54272;DHT22;40184;53.362;5.216;2023-02-28T01:01:48;6.50;99.90
54272;DHT22;40184;53.362;5.216;2023-02-28T01:04:14;6.70;99.90
54272;DHT22;40184;53.362;5.216;2023-02-28T01:06:40;6.60;99.90
54272;DHT22;40184;53.362;5.216;2023-02-28T01:09:07;6.50;99.90
54272;DHT22;40184;53.362;5.216;2023-02-28T01:11:34;6.80;99.90
54272;DHT22;40184;53.362;5.216;2023-02-28T01:14:00;6.60;99.90
54272;DHT22;40184;53.362;5.216;2023-02-28T01:16:26;6.70;99.90
54272;DHT22;40184;53.362;5.216;2023-02-28T01:18:52;6.60;99.90
54272;DHT22;40184;53.362;5.216;2023-02-28T01:21:19;6.60;99.90
54272;DHT22;40184;53.362;5.216;2023-02-28T01:23:45;6.70;99.90
54272;DHT22;40184;53.362;5.216;2023-02-28T01:26:21;6.40;99.90
54272;DHT22;40184;53.362;5.216;2023-02-28T01:28:49;6.60;99.90
54272;DHT22;40184;53.362;5.216;2023-02-28T01:31:17;6.50;99.90
54272;DHT22;40184;53.362;5.216;2023-02-28T01:33:44;6.60;99.90
54272;DHT22;40184;53.362;5.216;2023-02-28T01:36:17;6.70;99.90
54272;DHT22;40184;53.362;5.216;2023-02-28T01:38:44;6.70;99.90
54272;DHT22;40184;53.362;5.216;2023-02-28T01:41:19;6.60;99.90
54272;DHT22;40184;53.362;5.216;2023-02-28T01:46:11;6.80;99.90
54272;DHT22;40184;53.362;5.216;2023-02-28T01:48:41;6.60;99.90
54272;DHT22;40184;53.362;5.216;2023-02-28T01:51:17;6.80;99.90
54272;DHT22;40184;53.362;5.216;2023-02-28T01:53:47;6.80;99.90
54272;DHT22;40184;53.362;5.216;2023-02-28T01:56:17;6.80;99.90
54272;DHT22;40184;53.362;5.216;2023-02-28T01:58:50;6.60;99.90
54272;DHT22;40184;53.362;5.216;2023-02-28T02:01:17;6.60;99.90
54272;DHT22;40184;53.362;5.216;2023-02-28T02:03:58;6.80;99.90
54272;DHT22;40184;53.362;5.216;2023-02-28T02:06:35;6.60;99.90
54272;DHT22;40184;53.362;5.216;2023-02-28T02:09:02;6.70;99.90
54272;DHT22;40184;53.362;5.216;2023-02-28T02:11:28;6.50;99.90
54272;DHT22;40184;53.362;5.216;2023-02-28T02:25:31;6.60;99.90
54272;DHT22;40184;53.362;5.216;2023-02-28T02:31:05;6.50;99.90
54272;DHT22;40184;53.362;5.216;2023-02-28T02:36:34;6.70;99.90
54272;DHT22;40184;53.362;5.216;2023-02-28T02:41:38;6.60;99.90
54272;DHT22;40184;53.362;5.216;2023-02-28T02:44:34;6.80;99.90
54272;DHT22;40184;53.362;5.216;2023-02-28T02:47:08;6.70;99.90
54272;DHT22;40184;53.362;5.216;2023-02-28T02:49:36;6.50;99.90
54272;DHT22;40184;53.362;5.216;2023-02-28T02:52:06;6.60;99.90
54272;DHT22;40184;53.362;5.216;2023-02-28T02:54:38;6.90;99.90
54272;DHT22;40184;53.362;5.216;2023-02-28T02:57:08;6.80;99.90
54272;DHT22;40184;53.362;5.216;2023-02-28T02:59:37;6.90;99.90
54272;DHT22;40184;53.362;5.216;2023-02-28T03:02:06;6.50;99.90
54272;DHT22;40184;53.362;5.216;2023-02-28T03:04:38;6.50;99.90
54272;DHT22;40184;53.362;5.216;2023-02-28T03:07:05;6.90;99.90
54272;DHT22;40184;53.362;5.216;2023-02-28T03:09:33;6.90;99.90
54272;DHT22;40184;53.362;5.216;2023-02-28T03:11:59;6.80;99.90
54272;DHT22;40184;53.362;5.216;2023-02-28T03:14:37;7.00;99.90
54272;DHT22;40184;53.362;5.216;2023-02-28T03:20:40;6.90;99.90
54272;DHT22;40184;53.362;5.216;2023-02-28T03:28:10;6.60;99.90
54272;DHT22;40184;53.362;5.216;2023-02-28T03:30:52;7.00;99.90
54272;DHT22;40184;53.362;5.216;2023-02-28T03:35:57;6.80;99.90
54272;DHT22;40184;53.362;5.216;2023-02-28T03:38:33;6.60;99.90
54272;DHT22;40184;53.362;5.216;2023-02-28T03:41:06;6.80;99.90
54272;DHT22;40184;53.362;5.216;2023-02-28T03:43:36;6.70;99.90
54272;DHT22;40184;53.362;5.216;2023-02-28T03:46:08;6.80;99.90
54272;DHT22;40184;53.362;5.216;2023-02-28T03:48:44;7.00;99.90
54272;DHT22;40184;53.362;5.216;2023-02-28T03:51:15;6.90;99.90
54272;DHT22;40184;53.362;5.216;2023-02-28T03:53:52;6.70;99.90
54272;DHT22;40184;53.362;5.216;2023-02-28T03:56:19;6.70;99.90
54272;DHT22;40184;53.362;5.216;2023-02-28T04:01:41;6.90;99.90
54272;DHT22;40184;53.362;5.216;2023-02-28T04:04:11;6.70;99.90
54272;DHT22;40184;53.362;5.216;2023-02-28T04:06:39;6.60;99.90
54272;DHT22;40184;53.362;5.216;2023-02-28T04:09:06;7.00;99.90
54272;DHT22;40184;53.362;5.216;2023-02-28T04:11:38;6.60;99.90
54272;DHT22;40184;53.362;5.216;2023-02-28T04:14:05;6.80;99.90
54272;DHT22;40184;53.362;5.216;2023-02-28T04:16:33;7.00;99.90
54272;DHT22;40184;53.362;5.216;2023-02-28T04:18:59;7.00;99.90
54272;DHT22;40184;53.362;5.216;2023-02-28T04:21:34;6.90;99.90
54272;DHT22;40184;53.362;5.216;2023-02-28T04:24:00;6.70;99.90
54272;DHT22;40184;53.362;5.216;2023-02-28T04:26:33;6.90;99.90
54272;DHT22;40184;53.362;5.216;2023-02-28T04:29:00;6.90;99.90
54272;DHT22;40184;53.362;5.216;2023-02-28T04:31:26;6.80;99.90
54272;DHT22;40184;53.362;5.216;2023-02-28T04:33:51;6.90;99.90
54272;DHT22;40184;53.362;5.216;2023-02-28T04:36:17;6.90;99.90
54272;DHT22;40184;53.362;5.216;2023-02-28T04:38:44;6.80;99.90
54272;DHT22;40184;53.362;5.216;2023-02-28T04:41:11;6.80;99.90
54272;DHT22;40184;53.362;5.216;2023-02-28T04:43:37;6.90;99.90
54272;DHT22;40184;53.362;5.216;2023-02-28T04:46:04;7.10;99.90
54272;DHT22;40184;53.362;5.216;2023-02-28T04:48:32;7.10;99.90
54272;DHT22;40184;53.362;5.216;2023-02-28T04:51:06;6.90;99.90
54272;DHT22;40184;53.362;5.216;2023-02-28T04:53:32;6.80;99.90
54272;DHT22;40184;53.362;5.216;2023-02-28T04:55:58;6.90;99.90
54272;DHT22;40184;53.362;5.216;2023-02-28T04:58:24;7.00;99.90
54272;DHT22;40184;53.362;5.216;2023-02-28T05:00:51;7.00;99.90
54272;DHT22;40184;53.362;5.216;2023-02-28T05:03:17;6.80;99.90
54272;DHT22;40184;53.362;5.216;2023-02-28T05:05:43;6.80;99.90
54272;DHT22;40184;53.362;5.216;2023-02-28T05:08:08;6.90;99.90
54272;DHT22;40184;53.362;5.216;2023-02-28T05:10:35;7.10;99.90
54272;DHT22;40184;53.362;5.216;2023-02-28T05:13:01;6.90;99.90
54272;DHT22;40184;53.362;5.216;2023-02-28T05:15:27;6.80;99.90
54272;DHT22;40184;53.362;5.216;2023-02-28T05:17:52;7.20;99.90
54272;DHT22;40184;53.362;5.216;2023-02-28T05:20:18;6.80;99.90
54272;DHT22;40184;53.362;5.216;2023-02-28T05:22:44;6.90;99.90
54272;DHT22;40184;53.362;5.216;2023-02-28T05:25:28;6.80;99.90
54272;DHT22;40184;53.362;5.216;2023-02-28T05:27:53;6.90;99.90
54272;DHT22;40184;53.362;5.216;2023-02-28T05:30:19;6.90;99.90
54272;DHT22;40184;53.362;5.216;2023-02-28T05:32:50;7.20;99.90
54272;DHT22;40184;53.362;5.216;2023-02-28T05:35:16;6.90;99.90
54272;DHT22;40184;53.362;5.216;2023-02-28T05:37:42;7.00;99.90
54272;DHT22;40184;53.362;5.216;2023-02-28T05:40:08;6.90;99.90
54272;DHT22;40184;53.362;5.216;2023-02-28T05:42:37;6.90;99.90
54272;DHT22;40184;53.362;5.216;2023-02-28T05:45:04;7.00;99.90
54272;DHT22;40184;53.362;5.216;2023-02-28T05:47:30;6.90;99.90
54272;DHT22;40184;53.362;5.216;2023-02-28T05:49:56;7.20;99.90
54272;DHT22;40184;53.362;5.216;2023-02-28T05:52:21;7.00;99.90
54272;DHT22;40184;53.362;5.216;2023-02-28T05:54:47;7.00;99.90
54272;DHT22;40184;53.362;5.216;2023-02-28T05:57:13;7.00;99.90
54272;DHT22;40184;53.362;5.216;2023-02-28T05:59:39;6.80;99.90
54272;DHT22;40184;53.362;5.216;2023-02-28T06:02:16;7.10;99.90
54272;DHT22;40184;53.362;5.216;2023-02-28T06:04:42;6.90;99.90
54272;DHT22;40184;53.362;5.216;2023-02-28T06:07:08;6.90;99.90
54272;DHT22;40184;53.362;5.216;2023-02-28T06:09:35;7.10;99.90
54272;DHT22;40184;53.362;5.216;2023-02-28T06:12:03;7.10;99.90
54272;DHT22;40184;53.362;5.216;2023-02-28T06:14:31;6.90;99.90
54272;DHT22;40184;53.362;5.216;2023-02-28T06:16:58;7.20;99.90
54272;DHT22;40184;53.362;5.216;2023-02-28T06:19:24;7.20;99.90
54272;DHT22;40184;53.362;5.216;2023-02-28T06:21:54;7.00;99.90
54272;DHT22;40184;53.362;5.216;2023-02-28T06:24:21;6.90;99.90
54272;DHT22;40184;53.362;5.216;2023-02-28T06:26:48;6.90;99.90
54272;DHT22;40184;53.362;5.216;2023-02-28T06:29:14;6.80;99.90
54272;DHT22;40184;53.362;5.216;2023-02-28T06:31:47;7.20;99.90
54272;DHT22;40184;53.362;5.216;2023-02-28T06:34:13;7.20;99.90
54272;DHT22;40184;53.362;5.216;2023-02-28T06:36:40;7.10;99.90
54272;DHT22;40184;53.362;5.216;2023-02-28T06:39:06;7.00;99.90
54272;DHT22;40184;53.362;5.216;2023-02-28T06:41:33;7.20;99.90
54272;DHT22;40184;53.362;5.216;2023-02-28T06:44:04;7.10;99.90
54272;DHT22;40184;53.362;5.216;2023-02-28T06:46:31;6.90;99.90
54272;DHT22;40184;53.362;5.216;2023-02-28T06:48:57;7.00;99.90
54272;DHT22;40184;53.362;5.216;2023-02-28T06:51:23;7.10;99.90
54272;DHT22;40184;53.362;5.216;2023-02-28T06:53:50;7.20;99.90
54272;DHT22;40184;53.362;5.216;2023-02-28T06:56:16;7.30;99.90
54272;DHT22;40184;53.362;5.216;2023-02-28T06:58:49;7.00;99.90
54272;DHT22;40184;53.362;5.216;2023-02-28T07:01:15;7.10;99.90
54272;DHT22;40184;53.362;5.216;2023-02-28T07:03:41;7.40;99.90
54272;DHT22;40184;53.362;5.216;2023-02-28T07:06:07;7.10;99.90
54272;DHT22;40184;53.362;5.216;2023-02-28T07:08:34;7.40;99.90
54272;DHT22;40184;53.362;5.216;2023-02-28T07:11:00;7.30;99.90
54272;DHT22;40184;53.362;5.216;2023-02-28T07:13:25;7.30;99.90
54272;DHT22;40184;53.362;5.216;2023-02-28T07:16:03;7.30;99.90
54272;DHT22;40184;53.362;5.216;2023-02-28T07:18:29;7.40;99.90
54272;DHT22;40184;53.362;5.216;2023-02-28T07:20:55;7.20;99.90
54272;DHT22;40184;53.362;5.216;2023-02-28T07:23:21;7.20;99.90
54272;DHT22;40184;53.362;5.216;2023-02-28T07:25:48;7.20;99.90
54272;DHT22;40184;53.362;5.216;2023-02-28T07:28:14;7.30;99.90
54272;DHT22;40184;53.362;5.216;2023-02-28T07:30:41;7.30;99.90
54272;DHT22;40184;53.362;5.216;2023-02-28T07:33:06;7.50;99.90
54272;DHT22;40184;53.362;5.216;2023-02-28T07:35:32;7.50;99.90
54272;DHT22;40184;53.362;5.216;2023-02-28T07:37:59;7.50;99.90
54272;DHT22;40184;53.362;5.216;2023-02-28T07:40:25;7.30;99.90
54272;DHT22;40184;53.362;5.216;2023-02-28T07:42:51;7.40;99.90
54272;DHT22;40184;53.362;5.216;2023-02-28T07:45:16;7.50;99.90
54272;DHT22;40184;53.362;5.216;2023-02-28T07:47:43;7.50;99.90
54272;DHT22;40184;53.362;5.216;2023-02-28T07:50:11;7.70;99.90
54272;DHT22;40184;53.362;5.216;2023-02-28T07:52:38;7.50;99.90
54272;DHT22;40184;53.362;5.216;2023-02-28T07:55:06;7.60;99.90
54272;DHT22;40184;53.362;5.216;2023-02-28T07:57:32;7.40;99.90
54272;DHT22;40184;53.362;5.216;2023-02-28T07:59:57;7.70;99.90
54272;DHT22;40184;53.362;5.216;2023-02-28T08:02:23;7.40;99.90
54272;DHT22;40184;53.362;5.216;2023-02-28T08:04:49;7.60;99.90
54272;DHT22;40184;53.362;5.216;2023-02-28T08:07:16;7.40;99.90
54272;DHT22;40184;53.362;5.216;2023-02-28T08:09:43;7.70;99.90
54272;DHT22;40184;53.362;5.216;2023-02-28T08:12:10;7.60;99.90
54272;DHT22;40184;53.362;5.216;2023-02-28T08:14:36;7.50;99.90
54272;DHT22;40184;53.362;5.216;2023-02-28T08:17:03;7.60;99.90
54272;DHT22;40184;53.362;5.216;2023-02-28T08:19:28;7.60;99.90
54272;DHT22;40184;53.362;5.216;2023-02-28T08:21:55;7.40;99.90
54272;DHT22;40184;53.362;5.216;2023-02-28T08:24:21;7.30;99.90
54272;DHT22;40184;53.362;5.216;2023-02-28T08:26:47;7.40;99.90
54272;DHT22;40184;53.362;5.216;2023-02-28T08:29:12;7.60;99.90
54272;DHT22;40184;53.362;5.216;2023-02-28T08:31:38;7.30;99.90
54272;DHT22;40184;53.362;5.216;2023-02-28T08:34:12;7.60;99.90
54272;DHT22;40184;53.362;5.216;2023-02-28T08:36:38;7.60;99.90
54272;DHT22;40184;53.362;5.216;2023-02-28T08:39:05;7.50;99.90
54272;DHT22;40184;53.362;5.216;2023-02-28T08:41:32;7.70;99.90
54272;DHT22;40184;53.362;5.216;2023-02-28T08:43:58;7.60;99.90
54272;DHT22;40184;53.362;5.216;2023-02-28T08:46:24;7.60;99.90
54272;DHT22;40184;53.362;5.216;2023-02-28T08:48:54;7.40;99.90
54272;DHT22;40184;53.362;5.216;2023-02-28T08:51:21;7.40;99.90
54272;DHT22;40184;53.362;5.216;2023-02-28T08:53:53;7.70;99.90
54272;DHT22;40184;53.362;5.216;2023-02-28T08:56:19;7.70;99.90
54272;DHT22;40184;53.362;5.216;2023-02-28T08:58:46;7.60;99.90
54272;DHT22;40184;53.362;5.216;2023-02-28T09:01:14;7.70;99.90
54272;DHT22;40184;53.362;5.216;2023-02-28T09:03:41;7.50;99.90
54272;DHT22;40184;53.362;5.216;2023-02-28T09:06:08;7.80;99.90
54272;DHT22;40184;53.362;5.216;2023-02-28T09:08:35;7.40;99.90
54272;DHT22;40184;53.362;5.216;2023-02-28T09:11:01;7.60;99.90
54272;DHT22;40184;53.362;5.216;2023-02-28T09:13:28;7.70;99.90
54272;DHT22;40184;53.362;5.216;2023-02-28T09:15:57;7.60;99.90
54272;DHT22;40184;53.362;5.216;2023-02-28T09:18:23;7.60;99.90
54272;DHT22;40184;53.362;5.216;2023-02-28T09:20:49;7.80;99.90
54272;DHT22;40184;53.362;5.216;2023-02-28T09:23:15;7.70;99.90
54272;DHT22;40184;53.362;5.216;2023-02-28T09:25:49;7.90;99.90
54272;DHT22;40184;53.362;5.216;2023-02-28T09:28:16;8.00;99.90
54272;DHT22;40184;53.362;5.216;2023-02-28T09:30:44;8.00;99.90
54272;DHT22;40184;53.362;5.216;2023-02-28T09:33:09;8.20;99.90
54272;DHT22;40184;53.362;5.216;2023-02-28T09:35:35;8.30;99.90
54272;DHT22;40184;53.362;5.216;2023-02-28T09:38:03;8.00;99.90
54272;DHT22;40184;53.362;5.216;2023-02-28T09:40:30;8.30;99.90
54272;DHT22;40184;53.362;5.216;2023-02-28T09:42:57;8.00;99.90
54272;DHT22;40184;53.362;5.216;2023-02-28T09:45:31;8.00;99.90
54272;DHT22;40184;53.362;5.216;2023-02-28T09:48:03;8.20;99.90
54272;DHT22;40184;53.362;5.216;2023-02-28T09:50:35;7.80;99.90
54272;DHT22;40184;53.362;5.216;2023-02-28T09:53:19;7.80;99.90
54272;DHT22;40184;53.362;5.216;2023-02-28T09:55:55;7.60;99.90
54272;DHT22;40184;53.362;5.216;2023-02-28T09:58:28;7.50;99.90
54272;DHT22;40184;53.362;5.216;2023-02-28T10:03:50;7.50;99.90
54272;DHT22;40184;53.362;5.216;2023-02-28T10:06:20;7.70;99.90
54272;DHT22;40184;53.362;5.216;2023-02-28T10:09:07;7.40;99.90
54272;DHT22;40184;53.362;5.216;2023-02-28T10:11:35;7.60;99.90
54272;DHT22;40184;53.362;5.216;2023-02-28T10:19:13;7.20;99.90
54272;DHT22;40184;53.362;5.216;2023-02-28T10:21:49;7.10;99.90
54272;DHT22;40184;53.362;5.216;2023-02-28T10:27:00;7.10;99.90
54272;DHT22;40184;53.362;5.216;2023-02-28T10:29:27;7.20;99.90
54272;DHT22;40184;53.362;5.216;2023-02-28T10:32:02;7.10;99.90
54272;DHT22;40184;53.362;5.216;2023-02-28T10:34:28;7.10;99.90
54272;DHT22;40184;53.362;5.216;2023-02-28T10:36:54;7.10;99.90
54272;DHT22;40184;53.362;5.216;2023-02-28T10:39:59;7.10;99.90
54272;DHT22;40184;53.362;5.216;2023-02-28T10:42:30;7.00;99.90
54272;DHT22;40184;53.362;5.216;2023-02-28T10:45:14;6.90;99.90
54272;DHT22;40184;53.362;5.216;2023-02-28T10:48:05;7.20;99.90
54272;DHT22;40184;53.362;5.216;2023-02-28T10:50:39;6.90;99.90
54272;DHT22;40184;53.362;5.216;2023-02-28T10:55:36;7.20;99.90
54272;DHT22;40184;53.362;5.216;2023-02-28T10:58:02;6.90;99.90
54272;DHT22;40184;53.362;5.216;2023-02-28T11:00:37;6.90;99.90
54272;DHT22;40184;53.362;5.216;2023-02-28T11:03:32;7.00;99.90
54272;DHT22;40184;53.362;5.216;2023-02-28T11:06:03;7.20;99.90
54272;DHT22;40184;53.362;5.216;2023-02-28T11:08:29;7.40;99.90
54272;DHT22;40184;53.362;5.216;2023-02-28T11:10:58;7.10;99.90
54272;DHT22;40184;53.362;5.216;2023-02-28T11:13:32;7.30;99.90
54272;DHT22;40184;53.362;5.216;2023-02-28T11:16:02;7.30;99.90
54272;DHT22;40184;53.362;5.216;2023-02-28T11:18:32;7.10;99.90
54272;DHT22;40184;53.362;5.216;2023-02-28T11:21:01;7.40;99.90
54272;DHT22;40184;53.362;5.216;2023-02-28T11:23:30;7.40;99.90
54272;DHT22;40184;53.362;5.216;2023-02-28T11:25:59;7.20;99.90
54272;DHT22;40184;53.362;5.216;2023-02-28T11:28:31;7.40;99.90
54272;DHT22;40184;53.362;5.216;2023-02-28T11:33:52;7.10;99.90
54272;DHT22;40184;53.362;5.216;2023-02-28T11:36:23;7.40;99.90
54272;DHT22;40184;53.362;5.216;2023-02-28T11:38:56;7.10;99.90
54272;DHT22;40184;53.362;5.216;2023-02-28T11:47:32;7.70;99.90
54272;DHT22;40184;53.362;5.216;2023-02-28T11:50:24;8.20;99.90
54272;DHT22;40184;53.362;5.216;2023-02-28T12:00:44;8.70;99.90
54272;DHT22;40184;53.362;5.216;2023-02-28T12:06:09;8.80;99.90
54272;DHT22;40184;53.362;5.216;2023-02-28T12:17:12;8.60;99.90
54272;DHT22;40184;53.362;5.216;2023-02-28T12:25:31;8.90;99.90
54272;DHT22;40184;53.362;5.216;2023-02-28T12:28:02;8.60;99.90
54272;DHT22;40184;53.362;5.216;2023-02-28T12:30:32;8.70;99.90
54272;DHT22;40184;53.362;5.216;2023-02-28T12:35:37;8.70;99.90
54272;DHT22;40184;53.362;5.216;2023-02-28T12:38:19;8.60;99.90
54272;DHT22;40184;53.362;5.216;2023-02-28T12:40:51;8.40;99.90
54272;DHT22;40184;53.362;5.216;2023-02-28T12:43:21;8.50;99.90
54272;DHT22;40184;53.362;5.216;2023-02-28T12:45:58;8.50;99.90
54272;DHT22;40184;53.362;5.216;2023-02-28T12:48:30;8.30;99.90
54272;DHT22;40184;53.362;5.216;2023-02-28T12:50:57;8.50;99.90
54272;DHT22;40184;53.362;5.216;2023-02-28T12:53:35;8.50;99.90
54272;DHT22;40184;53.362;5.216;2023-02-28T12:56:22;8.30;99.90
54272;DHT22;40184;53.362;5.216;2023-02-28T12:59:01;8.30;99.90
54272;DHT22;40184;53.362;5.216;2023-02-28T13:04:14;8.20;99.90
54272;DHT22;40184;53.362;5.216;2023-02-28T13:09:21;8.50;99.90
54272;DHT22;40184;53.362;5.216;2023-02-28T13:11:49;8.20;99.90
54272;DHT22;40184;53.362;5.216;2023-02-28T13:14:39;8.20;99.90
54272;DHT22;40184;53.362;5.216;2023-02-28T13:19:33;8.20;99.90
54272;DHT22;40184;53.362;5.216;2023-02-28T13:22:01;8.40;99.90
54272;DHT22;40184;53.362;5.216;2023-02-28T13:24:46;8.20;99.90
54272;DHT22;40184;53.362;5.216;2023-02-28T13:29:53;8.00;99.90
54272;DHT22;40184;53.362;5.216;2023-02-28T13:39:52;7.80;77.30
54272;DHT22;40184;53.362;5.216;2023-02-28T13:42:23;7.90;84.50
54272;DHT22;40184;53.362;5.216;2023-02-28T13:47:42;7.90;39.20
54272;DHT22;40184;53.362;5.216;2023-02-28T13:55:53;7.90;1.00
54272;DHT22;40184;53.362;5.216;2023-02-28T14:07:23;7.90;1.00
54272;DHT22;40184;53.362;5.216;2023-02-28T14:10:01;8.40;1.00
54272;DHT22;40184;53.362;5.216;2023-02-28T14:18:02;8.30;1.00
54272;DHT22;40184;53.362;5.216;2023-02-28T14:20:31;8.50;1.00
54272;DHT22;40184;53.362;5.216;2023-02-28T14:31:15;8.20;1.00
54272;DHT22;40184;53.362;5.216;2023-02-28T14:38:57;7.90;1.00
54272;DHT22;40184;53.362;5.216;2023-02-28T14:41:37;8.00;1.00
54272;DHT22;40184;53.362;5.216;2023-02-28T14:44:22;8.20;1.00
54272;DHT22;40184;53.362;5.216;2023-02-28T14:46:57;8.10;1.00
54272;DHT22;40184;53.362;5.216;2023-02-28T14:49:31;8.00;1.00
54272;DHT22;40184;53.362;5.216;2023-02-28T14:54:38;7.80;1.00
54272;DHT22;40184;53.362;5.216;2023-02-28T14:57:04;8.10;1.00
54272;DHT22;40184;53.362;5.216;2023-02-28T14:59:32;8.10;1.00
54272;DHT22;40184;53.362;5.216;2023-02-28T15:02:31;7.90;1.00
54272;DHT22;40184;53.362;5.216;2023-02-28T15:05:23;7.70;99.90
54272;DHT22;40184;53.362;5.216;2023-02-28T15:08:22;7.70;1.00
54272;DHT22;40184;53.362;5.216;2023-02-28T15:13:21;7.70;1.00
54272;DHT22;40184;53.362;5.216;2023-02-28T15:16:01;7.90;1.00
54272;DHT22;40184;53.362;5.216;2023-02-28T15:21:01;7.90;1.00
54272;DHT22;40184;53.362;5.216;2023-02-28T15:23:28;8.10;1.00
54272;DHT22;40184;53.362;5.216;2023-02-28T15:25:54;7.90;1.00
54272;DHT22;40184;53.362;5.216;2023-02-28T15:28:22;8.00;1.00
54272;DHT22;40184;53.362;5.216;2023-02-28T15:30:54;8.10;1.00
54272;DHT22;40184;53.362;5.216;2023-02-28T15:33:25;7.90;1.00
54272;DHT22;40184;53.362;5.216;2023-02-28T15:36:02;8.20;1.00
54272;DHT22;40184;53.362;5.216;2023-02-28T15:38:28;8.00;1.00
54272;DHT22;40184;53.362;5.216;2023-02-28T15:40:58;8.30;1.00
54272;DHT22;40184;53.362;5.216;2023-02-28T15:46:08;8.20;1.00
54272;DHT22;40184;53.362;5.216;2023-02-28T15:48:42;7.90;1.00
54272;DHT22;40184;53.362;5.216;2023-02-28T15:51:16;8.00;1.00
54272;DHT22;40184;53.362;5.216;2023-02-28T15:53:54;8.00;1.00
54272;DHT22;40184;53.362;5.216;2023-02-28T15:56:37;7.80;1.00
54272;DHT22;40184;53.362;5.216;2023-02-28T15:59:07;7.70;1.00
54272;DHT22;40184;53.362;5.216;2023-02-28T16:01:38;7.70;1.00
54272;DHT22;40184;53.362;5.216;2023-02-28T16:04:25;7.80;1.00
54272;DHT22;40184;53.362;5.216;2023-02-28T16:09:23;7.60;1.00
54272;DHT22;40184;53.362;5.216;2023-02-28T16:11:51;7.80;1.00
54272;DHT22;40184;53.362;5.216;2023-02-28T16:14:23;7.70;14.50
54272;DHT22;40184;53.362;5.216;2023-02-28T16:16:52;7.60;28.20
54272;DHT22;40184;53.362;5.216;2023-02-28T16:19:19;7.50;41.80
54272;DHT22;40184;53.362;5.216;2023-02-28T16:21:46;7.80;64.60
54272;DHT22;40184;53.362;5.216;2023-02-28T16:24:12;7.50;71.30
54272;DHT22;40184;53.362;5.216;2023-02-28T16:26:40;7.50;83.40
54272;DHT22;40184;53.362;5.216;2023-02-28T16:29:07;7.70;84.00
54272;DHT22;40184;53.362;5.216;2023-02-28T16:31:36;7.70;98.50
54272;DHT22;40184;53.362;5.216;2023-02-28T16:34:03;7.60;96.90
54272;DHT22;40184;53.362;5.216;2023-02-28T16:36:29;7.40;99.90
54272;DHT22;40184;53.362;5.216;2023-02-28T16:38:55;7.60;99.90
54272;DHT22;40184;53.362;5.216;2023-02-28T16:41:24;7.50;99.90
54272;DHT22;40184;53.362;5.216;2023-02-28T16:43:53;7.10;99.90
54272;DHT22;40184;53.362;5.216;2023-02-28T16:46:20;7.10;99.90
54272;DHT22;40184;53.362;5.216;2023-02-28T16:48:47;7.10;99.90
54272;DHT22;40184;53.362;5.216;2023-02-28T16:51:17;7.20;99.90
54272;DHT22;40184;53.362;5.216;2023-02-28T16:53:44;7.00;99.90
54272;DHT22;40184;53.362;5.216;2023-02-28T16:56:23;7.20;99.90
54272;DHT22;40184;53.362;5.216;2023-02-28T16:58:50;7.10;99.90
54272;DHT22;40184;53.362;5.216;2023-02-28T17:01:17;6.80;99.90
54272;DHT22;40184;53.362;5.216;2023-02-28T17:03:48;7.00;99.90
54272;DHT22;40184;53.362;5.216;2023-02-28T17:06:25;6.90;99.90
54272;DHT22;40184;53.362;5.216;2023-02-28T17:08:53;6.60;99.90
54272;DHT22;40184;53.362;5.216;2023-02-28T17:11:20;6.60;99.90
54272;DHT22;40184;53.362;5.216;2023-02-28T17:13:46;6.70;99.90
54272;DHT22;40184;53.362;5.216;2023-02-28T17:18:50;6.70;99.90
54272;DHT22;40184;53.362;5.216;2023-02-28T17:21:16;6.40;99.90
54272;DHT22;40184;53.362;5.216;2023-02-28T17:23:43;6.50;99.90
54272;DHT22;40184;53.362;5.216;2023-02-28T17:26:19;6.60;99.90
54272;DHT22;40184;53.362;5.216;2023-02-28T17:28:48;6.50;99.90
54272;DHT22;40184;53.362;5.216;2023-02-28T17:31:14;6.20;99.90
54272;DHT22;40184;53.362;5.216;2023-02-28T17:33:40;6.20;99.90
54272;DHT22;40184;53.362;5.216;2023-02-28T17:36:09;6.30;99.90
54272;DHT22;40184;53.362;5.216;2023-02-28T17:38:35;6.30;99.90
54272;DHT22;40184;53.362;5.216;2023-02-28T17:41:01;6.10;99.90
54272;DHT22;40184;53.362;5.216;2023-02-28T17:43:27;6.00;99.90
54272;DHT22;40184;53.362;5.216;2023-02-28T17:45:54;6.10;99.90
54272;DHT22;40184;53.362;5.216;2023-02-28T17:48:20;6.10;99.90
54272;DHT22;40184;53.362;5.216;2023-02-28T17:50:46;6.20;99.90
54272;DHT22;40184;53.362;5.216;2023-02-28T17:53:11;6.00;99.90
54272;DHT22;40184;53.362;5.216;2023-02-28T17:55:37;6.10;99.90
54272;DHT22;40184;53.362;5.216;2023-02-28T17:58:04;5.90;99.90
54272;DHT22;40184;53.362;5.216;2023-02-28T18:00:30;5.80;99.90
54272;DHT22;40184;53.362;5.216;2023-02-28T18:02:59;6.20;99.90
54272;DHT22;40184;53.362;5.216;2023-02-28T18:05:24;6.00;99.90
54272;DHT22;40184;53.362;5.216;2023-02-28T18:07:51;6.00;99.90
54272;DHT22;40184;53.362;5.216;2023-02-28T18:10:20;6.10;99.90
54272;DHT22;40184;53.362;5.216;2023-02-28T18:12:47;6.10;99.90
54272;DHT22;40184;53.362;5.216;2023-02-28T18:15:14;6.00;99.90
54272;DHT22;40184;53.362;5.216;2023-02-28T18:17:40;6.00;99.90
54272;DHT22;40184;53.362;5.216;2023-02-28T18:20:07;5.90;99.90
54272;DHT22;40184;53.362;5.216;2023-02-28T18:22:35;5.80;99.90
54272;DHT22;40184;53.362;5.216;2023-02-28T18:25:04;5.90;99.90
54272;DHT22;40184;53.362;5.216;2023-02-28T18:27:31;5.90;99.90
54272;DHT22;40184;53.362;5.216;2023-02-28T18:29:56;6.00;99.90
54272;DHT22;40184;53.362;5.216;2023-02-28T18:32:22;5.80;99.90
54272;DHT22;40184;53.362;5.216;2023-02-28T18:34:48;6.00;99.90
54272;DHT22;40184;53.362;5.216;2023-02-28T18:37:13;5.90;99.90